createdAt,value
2023-01-08T00:01:27.698Z,53.02
2023-01-08T00:04:13.204Z,53.25
2023-01-08T00:06:58.356Z,53.21
2023-01-08T00:09:43.827Z,53.25
2023-01-08T00:12:29.399Z,53.19
2023-01-08T00:15:14.623Z,53.23
2023-01-08T00:18:00.081Z,53.27
2023-01-08T00:20:47.107Z,53.27
2023-01-08T00:23:33.137Z,53.16
2023-01-08T00:26:18.653Z,53.40
2023-01-08T00:29:05.578Z,53.40
2023-01-08T00:31:50.934Z,53.17
2023-01-08T00:34:36.301Z,53.39
2023-01-08T00:37:21.556Z,53.32
2023-01-08T00:40:09.807Z,53.53
2023-01-08T00:42:55.159Z,53.44
2023-01-08T00:45:40.403Z,53.25
2023-01-08T00:48:25.809Z,53.22
2023-01-08T00:51:11.439Z,53.25
2023-01-08T00:53:56.764Z,53.25
2023-01-08T00:56:42.057Z,53.31
2023-01-08T00:59:27.334Z,53.40
2023-01-08T01:02:13.152Z,53.38
2023-01-08T01:04:58.424Z,53.17
2023-01-08T01:07:44.664Z,53.15
2023-01-08T01:10:30.033Z,53.13
2023-01-08T01:13:15.296Z,53.20
2023-01-08T01:16:02.109Z,53.17
2023-01-08T01:18:47.532Z,53.20
2023-01-08T01:21:33.273Z,53.13
2023-01-08T01:24:18.513Z,53.22
2023-01-08T01:27:03.903Z,53.17
2023-01-08T01:29:49.303Z,53.23
2023-01-08T01:32:34.620Z,53.19
2023-01-08T01:35:19.910Z,53.17
2023-01-08T01:38:05.261Z,53.17
2023-01-08T01:40:50.591Z,53.18
2023-01-08T01:43:39.437Z,53.11
2023-01-08T01:46:33.587Z,52.99
2023-01-08T01:49:22.966Z,53.20
2023-01-08T01:52:09.806Z,53.10
2023-01-08T01:54:55.536Z,53.04
2023-01-08T01:57:49.113Z,53.24
2023-01-08T02:00:35.760Z,53.19
2023-01-08T02:03:24.077Z,53.10
2023-01-08T02:06:12.059Z,53.14
2023-01-08T02:09:12.432Z,53.30
2023-01-08T02:12:23.309Z,53.40
2023-01-08T02:15:47.309Z,53.22
2023-01-08T02:18:45.857Z,53.19
2023-01-08T02:22:12.865Z,53.41
2023-01-08T02:25:01.136Z,53.28
2023-01-08T02:27:51.217Z,53.24
2023-01-08T02:30:36.969Z,53.16
2023-01-08T02:33:23.931Z,53.33
2023-01-08T02:36:39.755Z,53.34
2023-01-08T02:40:06.120Z,53.49
2023-01-08T02:42:59.018Z,53.28
2023-01-08T02:45:48.757Z,53.34
2023-01-08T02:48:57.105Z,53.19
2023-01-08T02:51:52.666Z,53.43
2023-01-08T02:54:39.912Z,53.19
2023-01-08T02:57:27.019Z,53.19
2023-01-08T03:00:13.311Z,53.34
2023-01-08T03:03:15.837Z,53.32
2023-01-08T03:06:17.999Z,53.34
2023-01-08T03:09:04.227Z,53.16
2023-01-08T03:12:08.051Z,53.25
2023-01-08T03:15:01.843Z,53.39
2023-01-08T03:17:50.411Z,53.22
2023-01-08T03:20:38.027Z,53.31
2023-01-08T03:23:26.728Z,53.28
2023-01-08T03:26:17.640Z,53.05
2023-01-08T03:29:05.024Z,53.28
2023-01-08T03:31:53.244Z,53.20
2023-01-08T03:34:42.020Z,53.20
2023-01-08T03:37:33.170Z,53.12
2023-01-08T03:40:43.104Z,53.39
2023-01-08T03:43:29.273Z,53.25
2023-01-08T03:46:23.345Z,53.12
2023-01-08T03:49:09.405Z,53.28
2023-01-08T03:51:54.787Z,53.28
2023-01-08T03:54:40.057Z,53.32
2023-01-08T03:57:25.626Z,53.34
2023-01-08T04:00:11.924Z,53.16
2023-01-08T04:02:57.532Z,53.31
2023-01-08T04:05:43.191Z,53.21
2023-01-08T04:08:28.461Z,53.27
2023-01-08T04:11:13.986Z,53.18
2023-01-08T04:13:59.616Z,53.37
2023-01-08T04:16:45.568Z,53.25
2023-01-08T04:19:30.956Z,53.22
2023-01-08T04:22:16.366Z,53.28
2023-01-08T04:25:01.689Z,53.17
2023-01-08T04:27:47.058Z,53.16
2023-01-08T04:30:32.398Z,53.35
2023-01-08T04:33:17.823Z,53.25
2023-01-08T04:36:04.486Z,53.11
2023-01-08T04:38:49.828Z,53.23
2023-01-08T04:41:35.169Z,53.26
2023-01-08T04:44:20.699Z,53.19
2023-01-08T04:47:05.991Z,53.20
2023-01-08T04:49:51.336Z,53.10
2023-01-08T04:52:36.645Z,53.24
2023-01-08T04:55:21.999Z,53.23
2023-01-08T04:58:07.606Z,53.17
2023-01-08T05:00:52.861Z,53.13
2023-01-08T05:03:38.369Z,53.24
2023-01-08T05:06:24.215Z,53.20
2023-01-08T05:09:09.910Z,53.21
2023-01-08T05:11:55.231Z,53.27
2023-01-08T05:14:40.366Z,53.20
2023-01-08T05:17:25.765Z,53.25
2023-01-08T05:20:11.252Z,53.12
2023-01-08T05:22:58.451Z,53.24
2023-01-08T05:25:44.065Z,53.25
2023-01-08T05:28:29.484Z,52.98
2023-01-08T05:31:15.747Z,53.07
2023-01-08T05:34:01.229Z,53.27
2023-01-08T05:36:46.591Z,53.04
2023-01-08T05:39:31.779Z,53.17
2023-01-08T05:42:17.118Z,47.82
2023-01-08T05:45:04.194Z,43.63
2023-01-08T05:47:49.678Z,42.55
2023-01-08T05:50:35.627Z,41.37
2023-01-08T05:53:21.163Z,39.89
2023-01-08T05:56:09.401Z,39.91
2023-01-08T05:58:55.989Z,41.52
2023-01-08T06:01:41.501Z,43.06
2023-01-08T06:04:27.063Z,44.91
2023-01-08T06:07:12.330Z,46.05
2023-01-08T06:09:57.544Z,47.46
2023-01-08T06:12:42.791Z,47.45
2023-01-08T06:15:28.018Z,47.86
2023-01-08T06:18:13.565Z,48.62
2023-01-08T06:20:59.468Z,48.91
2023-01-08T06:23:45.588Z,48.98
2023-01-08T06:26:31.290Z,49.20
2023-01-08T06:29:16.752Z,49.52
2023-01-08T06:32:02.162Z,50.19
2023-01-08T06:34:47.634Z,50.13
2023-01-08T06:37:32.728Z,47.83
2023-01-08T06:40:18.361Z,47.48
2023-01-08T06:43:05.583Z,48.64
2023-01-08T06:45:55.265Z,49.37
2023-01-08T06:48:40.976Z,49.35
2023-01-08T06:51:26.230Z,49.14
2023-01-08T06:54:13.507Z,49.22
2023-01-08T06:56:58.997Z,49.14
2023-01-08T06:59:44.326Z,48.90
2023-01-08T07:02:30.169Z,48.43
2023-01-08T07:05:15.897Z,47.79
2023-01-08T07:08:01.579Z,47.34
2023-01-08T07:10:47.370Z,47.23
2023-01-08T07:13:32.826Z,47.24
2023-01-08T07:16:18.180Z,47.00
2023-01-08T07:19:03.984Z,46.72
2023-01-08T07:21:49.630Z,46.74
2023-01-08T07:24:35.351Z,46.29
2023-01-08T07:27:20.735Z,46.08
2023-01-08T07:30:08.382Z,46.08
2023-01-08T07:33:00.461Z,46.25
2023-01-08T07:35:54.682Z,46.11
2023-01-08T07:38:40.478Z,44.47
2023-01-08T07:41:26.569Z,46.04
2023-01-08T07:44:13.211Z,46.43
2023-01-08T07:46:58.787Z,47.07
2023-01-08T07:49:44.599Z,47.22
2023-01-08T07:52:30.074Z,47.42
2023-01-08T07:55:15.698Z,47.59
2023-01-08T07:58:01.198Z,48.02
2023-01-08T08:00:47.288Z,47.90
2023-01-08T08:03:32.743Z,47.98
2023-01-08T08:06:18.304Z,48.19
2023-01-08T08:09:04.054Z,48.39
2023-01-08T08:11:49.433Z,48.39
2023-01-08T08:14:34.706Z,48.86
2023-01-08T08:17:20.051Z,46.65
2023-01-08T08:20:05.955Z,48.33
2023-01-08T08:22:51.393Z,48.68
2023-01-08T08:25:37.448Z,48.96
2023-01-08T08:28:22.845Z,48.96
2023-01-08T08:31:08.420Z,49.27
2023-01-08T08:33:53.911Z,49.10
2023-01-08T08:36:41.384Z,49.21
2023-01-08T08:39:28.016Z,48.90
2023-01-08T08:42:13.443Z,49.14
2023-01-08T08:44:59.157Z,49.46
2023-01-08T08:47:45.686Z,49.25
2023-01-08T08:50:31.113Z,49.07
2023-01-08T08:53:16.749Z,49.26
2023-01-08T08:56:02.498Z,48.92
2023-01-08T08:58:50.611Z,49.08
2023-01-08T09:01:36.356Z,49.29
2023-01-08T09:04:22.246Z,49.26
2023-01-08T09:07:07.936Z,47.76
2023-01-08T09:09:53.337Z,49.09
2023-01-08T09:12:38.743Z,49.09
2023-01-08T09:15:24.477Z,49.07
2023-01-08T09:18:10.671Z,49.40
2023-01-08T09:20:56.352Z,49.33
2023-01-08T09:23:46.137Z,49.37
2023-01-08T09:26:31.767Z,49.46
2023-01-08T09:29:18.385Z,49.80
2023-01-08T09:32:07.267Z,49.53
2023-01-08T09:34:52.793Z,49.69
2023-01-08T09:37:38.085Z,49.82
2023-01-08T09:40:28.432Z,49.66
2023-01-08T09:43:20.727Z,49.90
2023-01-08T09:46:08.488Z,49.83
2023-01-08T09:48:59.007Z,49.80
2023-01-08T09:51:44.800Z,49.83
2023-01-08T09:54:30.327Z,49.65
2023-01-08T09:57:21.180Z,49.96
2023-01-08T10:00:28.258Z,49.82
2023-01-08T10:03:13.431Z,49.80
2023-01-08T10:05:59.888Z,49.93
2023-01-08T10:11:42.963Z,50.04
2023-01-08T10:14:31.791Z,50.55
2023-01-08T10:17:28.199Z,50.56
2023-01-08T10:20:24.895Z,50.55
2023-01-08T10:23:16.785Z,50.75
2023-01-08T10:26:04.430Z,50.87
2023-01-08T10:28:50.180Z,49.41
2023-01-08T10:31:46.045Z,50.29
2023-01-08T10:34:52.718Z,50.60
2023-01-08T10:37:43.141Z,50.85
2023-01-08T10:40:34.255Z,50.35
2023-01-08T10:43:25.335Z,50.22
2023-01-08T10:46:22.588Z,50.50
2023-01-08T10:49:17.462Z,50.02
2023-01-08T10:52:02.917Z,50.14
2023-01-08T10:54:48.208Z,50.02
2023-01-08T10:57:34.532Z,50.05
2023-01-08T11:00:32.614Z,50.11
2023-01-08T11:03:31.077Z,49.92
2023-01-08T11:06:22.612Z,50.04
2023-01-08T11:09:27.719Z,50.17
2023-01-08T11:12:33.133Z,50.05
2023-01-08T11:15:18.715Z,50.51
2023-01-08T11:18:05.764Z,50.02
2023-01-08T11:20:53.407Z,49.26
2023-01-08T11:23:38.827Z,50.07
2023-01-08T11:26:24.181Z,50.40
2023-01-08T11:29:22.465Z,50.63
2023-01-08T11:32:07.959Z,50.84
2023-01-08T11:35:03.285Z,50.99
2023-01-08T11:37:54.414Z,50.94
2023-01-08T11:41:00.148Z,50.91
2023-01-08T11:43:46.600Z,50.83
2023-01-08T11:46:50.970Z,50.87
2023-01-08T11:49:58.683Z,50.35
2023-01-08T11:53:12.294Z,50.71
2023-01-08T11:56:00.725Z,50.69
2023-01-08T11:59:07.429Z,51.03
2023-01-08T12:02:41.546Z,50.72
2023-01-08T12:05:27.097Z,50.58
2023-01-08T12:08:18.717Z,50.86
2023-01-08T12:11:04.461Z,50.61
2023-01-08T12:14:08.330Z,50.79
2023-01-08T12:17:25.735Z,50.76
2023-01-08T12:20:29.414Z,50.59
2023-01-08T12:23:45.269Z,50.68
2023-01-08T12:27:03.659Z,50.66
2023-01-08T12:30:12.433Z,49.54
2023-01-08T12:33:05.781Z,49.09
2023-01-08T12:35:54.859Z,49.78
2023-01-08T12:38:44.781Z,50.09
2023-01-08T12:41:34.069Z,50.32
2023-01-08T12:44:26.606Z,50.26
2023-01-08T12:47:19.583Z,50.32
2023-01-08T12:50:07.772Z,50.26
2023-01-08T12:53:13.627Z,50.14
2023-01-08T12:56:07.882Z,50.03
2023-01-08T12:59:04.864Z,50.15
2023-01-08T13:02:04.563Z,50.46
2023-01-08T13:04:50.259Z,50.57
2023-01-08T13:07:51.309Z,50.65
2023-01-08T13:10:55.973Z,48.78
2023-01-08T13:13:45.205Z,49.70
2023-01-08T13:16:35.077Z,51.73
2023-01-08T13:19:23.349Z,53.09
2023-01-08T13:22:41.792Z,53.12
2023-01-08T13:25:31.094Z,52.78
2023-01-08T13:28:46.228Z,52.15
2023-01-08T13:31:41.296Z,52.22
2023-01-08T13:34:40.203Z,52.05
2023-01-08T13:37:27.747Z,52.25
2023-01-08T13:40:49.778Z,52.35
2023-01-08T13:43:39.063Z,52.26
2023-01-08T13:46:25.185Z,51.89
2023-01-08T13:49:41.020Z,52.11
2023-01-08T13:52:35.192Z,52.35
2023-01-08T13:55:42.836Z,52.47
2023-01-08T13:58:49.320Z,51.29
2023-01-08T14:01:51.462Z,51.98
2023-01-08T14:04:36.838Z,51.92
2023-01-08T14:07:23.731Z,52.35
2023-01-08T14:10:14.603Z,52.56
2023-01-08T14:13:07.697Z,52.33
2023-01-08T14:15:53.310Z,52.39
2023-01-08T14:18:43.943Z,52.59
2023-01-08T14:21:30.909Z,52.64
2023-01-08T14:24:20.435Z,52.26
2023-01-08T14:27:20.690Z,52.07
2023-01-08T14:30:17.004Z,52.07
2023-01-08T14:33:03.578Z,52.08
2023-01-08T14:35:51.389Z,52.03
2023-01-08T14:38:37.342Z,52.23
2023-01-08T14:41:53.130Z,52.20
2023-01-08T14:44:42.443Z,51.78
2023-01-08T14:47:37.339Z,52.09
2023-01-08T14:50:33.136Z,51.98
2023-01-08T14:53:22.056Z,51.66
2023-01-08T14:56:13.581Z,52.09
2023-01-08T14:59:00.577Z,51.54
2023-01-08T15:01:54.095Z,51.51
2023-01-08T15:04:39.824Z,50.46
2023-01-08T15:07:29.727Z,50.63
2023-01-08T15:10:41.592Z,49.76
2023-01-08T15:13:32.788Z,50.47
2023-01-08T15:16:30.336Z,50.60
2023-01-08T15:19:19.345Z,50.86
2023-01-08T15:22:04.727Z,50.99
2023-01-08T15:24:58.622Z,50.96
2023-01-08T15:27:54.875Z,50.94
2023-01-08T15:30:46.533Z,51.17
2023-01-08T15:33:32.073Z,51.06
2023-01-08T15:36:17.441Z,50.80
2023-01-08T15:39:04.132Z,50.74
2023-01-08T15:47:52.634Z,51.00
2023-01-08T15:50:40.155Z,50.88
2023-01-08T15:53:25.011Z,50.89
2023-01-08T15:56:09.563Z,51.22
2023-01-08T15:58:54.343Z,51.18
2023-01-08T16:01:39.147Z,51.21
2023-01-08T16:04:25.541Z,51.00
2023-01-08T16:07:11.365Z,51.08
2023-01-08T16:09:57.085Z,51.11
2023-01-08T16:12:43.542Z,50.84
2023-01-08T16:15:31.011Z,50.96
2023-01-08T16:18:17.188Z,51.01
2023-01-08T16:21:02.794Z,50.62
2023-01-08T16:23:48.182Z,50.79
2023-01-08T16:26:33.596Z,50.74
2023-01-08T16:29:19.282Z,50.63
2023-01-08T16:32:05.365Z,50.73
2023-01-08T16:34:50.635Z,51.00
2023-01-08T16:37:36.091Z,50.97
2023-01-08T16:40:21.821Z,50.87
2023-01-08T16:43:11.383Z,50.72
2023-01-08T16:45:57.280Z,51.13
2023-01-08T16:48:42.836Z,51.09
2023-01-08T16:51:28.349Z,50.81
2023-01-08T16:54:15.544Z,51.00
2023-01-08T16:57:01.248Z,49.86
2023-01-08T16:59:46.451Z,49.84
2023-01-08T17:02:31.956Z,50.14
2023-01-08T17:05:17.227Z,50.12
2023-01-08T17:08:02.535Z,50.32
2023-01-08T17:10:48.477Z,50.51
2023-01-08T17:13:33.691Z,49.93
2023-01-08T17:16:19.783Z,50.44
2023-01-08T17:19:05.339Z,50.50
2023-01-08T17:21:50.954Z,50.45
2023-01-08T17:24:36.758Z,51.14
2023-01-08T17:27:22.348Z,51.26
2023-01-08T17:30:11.893Z,51.53
2023-01-08T17:32:57.648Z,51.42
2023-01-08T17:35:42.835Z,51.42
2023-01-08T17:38:28.691Z,51.36
2023-01-08T17:41:34.569Z,51.53
2023-01-08T17:44:20.756Z,51.99
2023-01-08T17:47:06.018Z,50.02
2023-01-08T17:49:52.833Z,50.96
2023-01-08T17:52:39.019Z,51.45
2023-01-08T17:55:26.500Z,51.99
2023-01-08T17:58:12.681Z,51.80
2023-01-08T18:01:00.317Z,52.04
2023-01-08T18:03:46.512Z,51.95
2023-01-08T18:06:32.194Z,51.71
2023-01-08T18:14:48.849Z,52.09
2023-01-08T18:17:34.487Z,52.04
2023-01-08T18:20:19.686Z,52.11
2023-01-08T18:23:04.927Z,52.15
2023-01-08T18:25:50.151Z,51.81
2023-01-08T18:28:35.960Z,52.19
2023-01-08T18:31:21.939Z,52.09
2023-01-08T18:34:09.174Z,52.10
2023-01-08T18:36:54.453Z,52.11
2023-01-08T18:39:39.565Z,52.23
2023-01-08T18:42:27.788Z,52.06
2023-01-08T18:45:15.152Z,52.26
2023-01-08T18:48:02.750Z,52.28
2023-01-08T18:50:49.731Z,52.56
2023-01-08T18:53:35.566Z,52.48
2023-01-08T18:56:26.823Z,51.96
2023-01-08T18:59:14.936Z,52.09
2023-01-08T19:02:00.795Z,52.29
2023-01-08T19:04:46.348Z,52.29
2023-01-08T19:07:32.324Z,51.92
2023-01-08T19:10:17.986Z,51.92
2023-01-08T19:13:05.051Z,51.87
2023-01-08T19:15:50.320Z,52.30
2023-01-08T19:18:36.157Z,52.11
2023-01-08T19:21:22.466Z,51.67
2023-01-08T19:24:08.837Z,51.51
2023-01-08T19:26:54.672Z,50.71
2023-01-08T19:29:41.114Z,50.65
2023-01-08T19:32:27.924Z,50.31
2023-01-08T19:35:14.299Z,50.18
2023-01-08T19:38:00.018Z,50.54
2023-01-08T19:40:46.219Z,50.57
2023-01-08T19:43:44.505Z,50.73
2023-01-08T19:46:32.164Z,50.79
2023-01-08T19:49:20.342Z,50.50
2023-01-08T19:52:06.533Z,50.45
2023-01-08T19:54:52.277Z,50.67
2023-01-08T19:57:38.986Z,50.55
2023-01-08T20:00:25.525Z,50.36
2023-01-08T20:03:12.223Z,50.43
2023-01-08T20:05:58.060Z,50.20
2023-01-08T20:08:46.151Z,50.33
2023-01-08T20:11:31.999Z,50.37
2023-01-08T20:14:19.847Z,50.44
2023-01-08T20:17:07.436Z,50.26
2023-01-08T20:19:53.038Z,50.18
2023-01-08T20:22:38.368Z,50.12
2023-01-08T20:25:25.856Z,50.09
2023-01-08T20:28:11.044Z,50.24
2023-01-08T20:30:57.472Z,50.04
2023-01-08T20:33:43.791Z,50.29
2023-01-08T20:36:32.260Z,50.48
2023-01-08T20:39:18.342Z,50.10
2023-01-08T20:42:04.841Z,50.20
2023-01-08T20:44:50.607Z,49.94
2023-01-08T20:47:36.408Z,50.15
2023-01-08T20:50:22.212Z,50.16
2023-01-08T20:53:08.099Z,50.24
2023-01-08T20:55:54.060Z,50.17
2023-01-08T20:58:41.329Z,50.19
2023-01-08T21:01:31.236Z,50.24
2023-01-08T21:04:16.910Z,50.20
2023-01-08T21:07:01.890Z,50.39
2023-01-08T21:09:47.113Z,50.33
2023-01-08T21:12:32.676Z,50.42
2023-01-08T21:15:18.339Z,50.18
2023-01-08T21:18:04.293Z,50.36
2023-01-08T21:20:49.688Z,50.39
2023-01-08T21:23:34.735Z,50.27
2023-01-08T21:26:20.209Z,50.19
2023-01-08T21:29:07.000Z,50.12
2023-01-08T21:31:52.549Z,50.13
2023-01-08T21:34:37.607Z,50.50
2023-01-08T21:37:22.904Z,50.54
2023-01-08T21:40:08.896Z,50.51
2023-01-08T21:43:13.057Z,50.59
2023-01-08T21:46:01.631Z,50.48
2023-01-08T21:48:51.993Z,50.73
2023-01-08T21:51:55.753Z,50.74
2023-01-08T21:54:40.975Z,50.63
2023-01-08T21:57:29.620Z,50.63
2023-01-08T22:00:15.498Z,50.83
2023-01-08T22:03:00.908Z,50.87
2023-01-08T22:06:00.489Z,50.82
2023-01-08T22:08:51.189Z,50.90
2023-01-08T22:11:36.870Z,50.86
2023-01-08T22:14:22.093Z,50.71
2023-01-08T22:17:10.292Z,50.81
2023-01-08T22:19:57.857Z,50.90
2023-01-08T22:22:47.063Z,50.77
2023-01-08T22:25:32.522Z,50.85
2023-01-08T22:28:17.832Z,50.89
2023-01-08T22:31:07.474Z,50.80
2023-01-08T22:33:54.791Z,50.92
2023-01-08T22:36:39.912Z,50.88
2023-01-08T22:39:25.446Z,50.86
2023-01-08T22:42:10.434Z,50.92
2023-01-08T22:44:55.622Z,50.70
2023-01-08T22:47:40.892Z,50.93
2023-01-08T22:50:26.140Z,50.96
2023-01-08T22:53:11.678Z,51.12
2023-01-08T22:55:57.258Z,50.89
2023-01-08T22:58:45.316Z,51.02
2023-01-08T23:01:30.853Z,50.99
2023-01-08T23:04:16.010Z,50.99
2023-01-08T23:07:01.181Z,50.96
2023-01-08T23:09:47.667Z,50.96
2023-01-08T23:12:34.396Z,50.97
2023-01-08T23:15:20.809Z,50.92
2023-01-08T23:18:05.991Z,51.00
2023-01-08T23:20:51.224Z,50.97
2023-01-08T23:23:36.919Z,51.02
2023-01-08T23:26:28.866Z,50.99
2023-01-08T23:29:14.405Z,50.89
2023-01-08T23:31:59.802Z,50.97
2023-01-08T23:34:45.167Z,50.92
2023-01-08T23:37:30.474Z,50.93
2023-01-08T23:40:16.135Z,50.80
2023-01-08T23:43:01.551Z,51.01
2023-01-08T23:45:46.845Z,51.09
2023-01-08T23:48:32.057Z,50.91
2023-01-08T23:51:17.676Z,50.96
2023-01-08T23:54:03.566Z,50.87
2023-01-08T23:56:49.397Z,50.98
2023-01-08T23:59:34.635Z,50.85
